Time;durP1;ratioP1;P1;durP2;ratioP2;P2;SDS_P1;SDS_P2;PMS_P1;PMS_P2;Temp;Humidity;BMP_temperature;BMP_pressure;BME280_temperature;BME280_humidity;BME280_pressure;Samples;Min_cycle;Max_cycle;Signal;HPM_P1;HPM_P2
2022/03/17 00:01:27;;;;;;;75.00;43.00;;;;;;;-2.27;78.43;98371.71;110377;1244;71257;-62
2022/03/17 00:03:58;;;;;;;73.20;44.30;;;;;;;-2.21;79.08;98372.71;110313;1244;68048;-61
2022/03/17 00:06:28;;;;;;;84.60;47.90;;;;;;;-2.19;81.51;98377.29;110059;1247;69439;-60
2022/03/17 00:08:57;;;;;;;74.80;43.30;;;;;;;-2.22;81.40;98373.72;110229;1244;59754;-62
2022/03/17 00:11:29;;;;;;;75.90;41.90;;;;;;;-2.22;79.06;98371.67;110146;1244;59695;-61
2022/03/17 00:13:58;;;;;;;63.70;37.10;;;;;;;-2.19;79.42;98369.77;110153;1245;70889;-61
2022/03/17 00:16:29;;;;;;;60.50;35.60;;;;;;;-2.17;79.92;98374.55;110491;1244;68789;-65
2022/03/17 00:19:08;;;;;;;64.60;38.40;;;;;;;-2.17;79.71;98376.08;110088;1244;69210;-65
2022/03/17 00:21:39;;;;;;;69.00;40.40;;;;;;;-2.18;79.67;98378.48;110069;1247;59755;-64
2022/03/17 00:24:08;;;;;;;58.60;34.00;;;;;;;-2.22;79.40;98374.59;110031;1245;59745;-68
2022/03/17 00:26:38;;;;;;;68.40;39.60;;;;;;;-2.27;79.59;98370.86;110034;1247;71360;-65
2022/03/17 00:29:09;;;;;;;84.70;46.50;;;;;;;-2.34;80.01;98370.73;110241;1244;68444;-64
2022/03/17 00:31:39;;;;;;;77.80;44.00;;;;;;;-2.41;80.00;98369.41;110077;1246;68456;-67
2022/03/17 00:34:09;;;;;;;;;;;;;;;-2.50;81.86;98366.71;110227;1244;60152;-65
2022/03/17 00:36:39;;;;;;;66.50;41.50;;;;;;;-2.58;82.21;98368.64;110340;1244;59694;-67
2022/03/17 00:39:09;;;;;;;68.60;38.30;;;;;;;-2.63;81.30;98370.89;110091;1244;72370;-65
2022/03/17 00:41:40;;;;;;;71.80;40.00;;;;;;;-2.66;80.33;98372.27;110397;1244;68566;-65
2022/03/17 00:44:11;;;;;;;73.60;40.00;;;;;;;-2.68;80.06;98371.08;110124;1246;69102;-66
2022/03/17 00:46:41;;;;;;;56.90;34.80;;;;;;;-2.69;79.87;98371.94;110087;1246;59711;-63
2022/03/17 00:49:12;;;;;;;81.10;47.80;;;;;;;-2.70;79.85;98369.55;110333;1245;59746;-63
2022/03/17 00:51:42;;;;;;;74.60;44.00;;;;;;;-2.71;81.91;98366.15;110152;1244;71530;-67
2022/03/17 00:54:11;;;;;;;68.60;39.50;;;;;;;-2.74;80.36;98369.06;110114;1247;68109;-66
2022/03/17 00:56:43;;;;;;;75.30;40.70;;;;;;;-2.76;79.94;98371.48;110029;1244;68974;-66
2022/03/17 00:59:14;;;;;;;56.50;34.40;;;;;;;-2.80;79.84;98372.33;110413;1244;59738;-65
2022/03/17 01:01:44;;;;;;;54.80;31.20;;;;;;;-2.84;80.05;98371.48;110228;1244;59684;-64
2022/03/17 01:04:13;;;;;;;66.20;41.40;;;;;;;-2.88;80.11;98373.55;110037;1245;71526;-64
2022/03/17 01:06:44;;;;;;;50.60;29.20;;;;;;;-2.94;80.64;98375.80;110152;1246;67384;-64
2022/03/17 01:09:14;;;;;;;66.50;38.90;;;;;;;-3.00;82.22;98378.73;110454;1244;69419;-64
2022/03/17 01:11:43;;;;;;;77.50;43.40;;;;;;;-3.08;82.25;98384.72;110156;1244;59744;-65
2022/03/17 01:14:13;;;;;;;83.50;44.50;;;;;;;-3.15;81.78;98384.05;110018;1247;59675;-66
2022/03/17 01:16:44;;;;;;;70.00;39.50;;;;;;;-3.20;81.52;98385.77;110141;1247;70811;-67
2022/03/17 01:19:14;;;;;;;53.00;33.00;;;;;;;-3.25;81.10;98385.10;110460;1244;67640;-65
2022/03/17 01:21:44;;;;;;;68.10;39.50;;;;;;;-3.31;80.96;98389.38;110195;1245;69392;-64
2022/03/17 01:24:16;;;;;;;58.30;34.70;;;;;;;-3.36;80.90;98387.84;110141;1247;59747;-65
2022/03/17 01:26:46;;;;;;;46.70;28.00;;;;;;;-3.41;80.55;98387.52;110424;1244;59686;-66
2022/03/17 01:29:17;;;;;;;73.10;40.20;;;;;;;-3.43;80.08;98391.27;110144;1244;71512;-64
2022/03/17 01:31:50;;;;;;;72.10;40.90;;;;;;;-3.43;79.92;98390.08;110141;1244;68404;-63
2022/03/17 01:34:21;;;;;;;57.80;33.50;;;;;;;-3.42;79.54;98392.80;110122;1244;69402;-65
2022/03/17 01:36:51;;;;;;;;;;;;;;;-3.43;80.00;98391.61;110362;1244;59748;-66
2022/03/17 01:39:21;;;;;;;60.50;35.70;;;;;;;-3.47;80.28;98391.10;110124;1245;59694;-65
2022/03/17 01:41:51;;;;;;;55.40;31.90;;;;;;;-3.50;80.37;98387.02;110348;1244;71518;-66
2022/03/17 01:44:22;;;;;;;39.40;25.90;;;;;;;-3.54;79.97;98386.84;110248;1247;68556;-66
2022/03/17 01:50:06;;;;;;;43.60;26.90;;;;;;;-3.63;79.72;98387.55;109709;1250;59830;-65
2022/03/17 01:52:37;;;;;;;49.90;30.40;;;;;;;-3.63;79.43;98388.57;110087;1245;59615;-64
2022/03/17 01:55:09;;;;;;;31.00;17.20;;;;;;;-3.62;79.59;98391.96;110186;1244;71448;-64
2022/03/17 01:57:40;;;;;;;69.60;37.50;;;;;;;-3.59;80.16;98398.27;110146;1244;67606;-64
2022/03/17 02:00:16;;;;;;;79.50;42.10;;;;;;;-3.60;81.76;98401.69;110422;1244;68660;-64
2022/03/17 02:02:48;;;;;;;75.40;42.70;;;;;;;-3.73;79.56;98410.89;110114;1247;59706;-62
2022/03/17 02:05:20;;;;;;;62.90;37.90;;;;;;;-3.91;78.97;98412.59;110113;1245;59746;-68
2022/03/17 02:07:51;;;;;;;64.50;38.40;;;;;;;-4.09;79.27;98413.08;110295;1244;71277;-65
2022/03/17 02:10:22;;;;;;;53.00;31.70;;;;;;;-4.19;80.44;98411.35;110119;1247;67995;-64
2022/03/17 02:13:10;;;;;;;65.10;36.80;;;;;;;-4.24;80.69;98412.05;110189;1244;68672;-64
2022/03/17 02:15:41;;;;;;;60.20;36.00;;;;;;;-4.27;82.44;98412.88;110236;1244;59693;-65
2022/03/17 02:18:16;;;;;;;68.30;36.50;;;;;;;-4.31;82.73;98412.52;110148;1244;59681;-65
2022/03/17 02:20:48;;;;;;;68.10;37.70;;;;;;;-4.36;82.00;98414.73;110362;1244;71519;-65
2022/03/17 02:26:06;;;;;;;48.40;27.70;;;;;;;-4.42;81.84;98415.40;110399;1244;68643;-65
2022/03/17 02:28:42;;;;;;;44.50;24.40;;;;;;;-4.43;81.46;98422.71;110042;1247;59772;-65
2022/03/17 02:31:13;;;;;;;46.30;25.50;;;;;;;-4.43;80.64;98423.73;110057;1248;59682;-64
2022/03/17 02:33:43;;;;;;;67.70;37.30;;;;;;;-4.40;80.43;98423.06;110201;1244;71480;-65
2022/03/17 02:36:14;;;;;;;41.90;24.10;;;;;;;-4.33;81.72;98427.84;110406;1244;67851;-64
2022/03/17 02:38:44;;;;;;;46.70;27.30;;;;;;;-4.29;81.02;98429.73;110416;1244;69439;-64
2022/03/17 02:41:21;;;;;;;47.70;28.90;;;;;;;-4.29;80.69;98433.98;110461;1244;59688;-63
2022/03/17 02:43:53;;;;;;;59.70;34.20;;;;;;;-4.31;80.58;98442.31;110412;1244;59643;-64
2022/03/17 02:46:25;;;;;;;55.60;33.40;;;;;;;-4.32;80.32;98444.35;110238;1244;71192;-67
2022/03/17 02:48:55;;;;;;;63.60;36.10;;;;;;;-4.32;82.22;98448.95;110134;1244;68486;-62
2022/03/17 02:51:25;;;;;;;51.10;30.80;;;;;;;-4.36;82.96;98450.64;110367;1244;68648;-61
2022/03/17 02:53:57;;;;;;;63.10;35.70;;;;;;;-4.40;82.01;98453.17;110341;1244;59684;-65
2022/03/17 02:56:27;;;;;;;44.80;28.10;;;;;;;-4.44;82.63;98453.52;109842;1244;770241;-68
2022/03/17 02:58:57;;;;;;;;;;;;;;;-4.47;83.24;98452.48;110438;1244;70753;-65
2022/03/17 03:01:27;;;;;;;;;;;;;;;-4.49;83.33;98453.48;110141;1244;67935;-64
2022/03/17 03:03:58;;;;;;;28.60;18.90;;;;;;;-4.52;82.81;98455.52;109947;1247;69483;-65
2022/03/17 03:06:27;;;;;;;32.20;17.70;;;;;;;-4.54;82.30;98462.31;110138;1247;59802;-66
2022/03/17 03:08:59;;;;;;;33.30;19.50;;;;;;;-4.55;83.24;98464.18;110277;1245;59687;-64
2022/03/17 03:11:29;;;;;;;28.90;18.60;;;;;;;-4.56;82.10;98464.87;110374;1244;70909;-65
2022/03/17 03:13:59;;;;;;;31.70;19.40;;;;;;;-4.58;81.83;98464.69;110211;1244;68720;-65
2022/03/17 03:16:29;;;;;;;39.00;23.40;;;;;;;-4.59;80.73;98469.27;110236;1244;67464;-66
2022/03/17 03:18:59;;;;;;;40.00;25.00;;;;;;;-4.61;81.49;98470.80;110148;1244;59738;-65
2022/03/17 03:21:30;;;;;;;35.20;21.20;;;;;;;-4.63;82.03;98474.86;110186;1244;59714;-68
2022/03/17 03:24:01;;;;;;;37.00;23.60;;;;;;;-4.66;81.45;98480.14;110211;1244;70604;-68
2022/03/17 03:26:31;;;;;;;37.20;22.50;;;;;;;-4.70;81.20;98485.90;110106;1247;68459;-64
2022/03/17 03:29:03;;;;;;;49.20;28.80;;;;;;;-4.71;81.97;98488.10;110141;1247;69412;-65
2022/03/17 03:31:34;;;;;;;26.30;15.60;;;;;;;-4.73;81.36;98486.05;110152;1244;59719;-64
2022/03/17 03:34:04;;;;;;;64.50;35.00;;;;;;;-4.75;80.25;98486.20;110165;1244;59719;-64
2022/03/17 03:39:23;;;;;;;58.50;28.40;;;;;;;-4.81;79.18;98484.80;110057;1245;68594;-67
2022/03/17 03:41:53;;;;;;;63.40;34.30;;;;;;;-4.81;78.48;98493.98;109896;1248;69232;-65
2022/03/17 03:44:23;;;;;;;45.40;24.90;;;;;;;-4.82;78.65;98494.84;110373;1244;60105;-64
2022/03/17 03:46:53;;;;;;;52.50;31.00;;;;;;;-4.83;78.63;98501.81;110306;1244;60062;-63
2022/03/17 03:49:24;;;;;;;37.20;19.90;;;;;;;-4.86;79.59;98503.66;110488;1244;70853;-63
2022/03/17 03:51:54;;;;;;;;;;;;;;;-4.91;81.04;98505.68;110445;1245;68594;-65
2022/03/17 03:54:24;;;;;;;49.80;29.40;;;;;;;-4.97;81.55;98508.70;110251;1244;69418;-65
2022/03/17 03:56:56;;;;;;;52.70;30.40;;;;;;;-5.03;81.38;98508.31;110415;1244;59687;-65
2022/03/17 03:59:29;;;;;;;62.10;34.80;;;;;;;-5.08;80.97;98509.98;110399;1244;59741;-65
2022/03/17 04:02:01;;;;;;;43.00;23.50;;;;;;;-5.12;80.43;98515.92;110221;1245;70599;-63
2022/03/17 04:04:33;;;;;;;51.60;29.80;;;;;;;-5.14;81.91;98518.10;110254;1244;68746;-62
2022/03/17 04:07:10;;;;;;;42.20;24.80;;;;;;;-5.16;83.52;98522.68;110042;1247;68606;-65
2022/03/17 04:09:41;;;;;;;42.10;24.10;;;;;;;-5.19;83.65;98525.71;110022;1247;59729;-64
2022/03/17 04:12:13;;;;;;;38.50;24.80;;;;;;;-5.22;82.70;98528.93;110134;1246;59691;-63
2022/03/17 04:14:43;;;;;;;51.70;27.30;;;;;;;-5.24;82.13;98533.34;110096;1245;70595;-62
2022/03/17 04:17:16;;;;;;;49.60;26.90;;;;;;;-5.20;84.99;98536.25;110254;1243;67808;-62
2022/03/17 04:19:46;;;;;;;58.70;30.10;;;;;;;-5.19;81.25;98540.33;110146;1247;68594;-62
2022/03/17 04:22:15;;;;;;;57.40;30.10;;;;;;;-5.17;81.06;98546.14;110322;1244;59754;-63
2022/03/17 04:24:45;;;;;;;49.70;27.40;;;;;;;-5.14;82.68;98550.91;110401;1243;59640;-66
2022/03/17 04:27:15;;;;;;;38.90;21.10;;;;;;;-5.11;80.78;98552.46;110134;1247;70881;-66
2022/03/17 04:29:45;;;;;;;50.00;26.70;;;;;;;-5.07;80.07;98556.56;110386;1243;67792;-66
2022/03/17 04:32:15;;;;;;;48.40;24.70;;;;;;;-5.00;81.42;98556.11;110415;1244;69416;-64
2022/03/17 04:34:44;;;;;;;40.90;22.70;;;;;;;-4.98;81.06;98560.90;110240;1244;59684;-63
2022/03/17 04:37:14;;;;;;;46.60;26.10;;;;;;;-4.98;80.34;98563.11;110114;1247;59736;-66
2022/03/17 04:39:44;;;;;;;57.50;30.90;;;;;;;-4.98;80.06;98564.13;110162;1247;71028;-61
2022/03/17 04:42:15;;;;;;;41.60;24.30;;;;;;;-4.99;80.87;98563.77;110485;1244;68563;-66
2022/03/17 04:44:45;;;;;;;47.50;25.00;;;;;;;-5.01;81.28;98565.63;110036;1248;69415;-68
2022/03/17 04:47:15;;;;;;;59.30;28.80;;;;;;;-5.03;81.66;98570.38;110142;1247;59752;-63
2022/03/17 04:49:44;;;;;;;49.90;27.40;;;;;;;-5.04;81.25;98576.30;110160;1245;60120;-64
2022/03/17 04:55:04;;;;;;;34.40;21.90;;;;;;;-5.00;81.06;98586.89;110062;1248;68512;-62
2022/03/17 04:57:34;;;;;;;36.40;19.70;;;;;;;-5.00;80.90;98591.46;110097;1247;68452;-65
2022/03/17 05:00:06;;;;;;;32.50;18.70;;;;;;;-4.98;81.78;98597.45;110040;1247;59748;-64
2022/03/17 05:02:37;;;;;;;28.90;16.60;;;;;;;-4.95;82.11;98597.64;110513;1244;59653;-66
2022/03/17 05:05:07;;;;;;;61.20;30.10;;;;;;;-4.92;82.49;98598.52;110092;1244;70564;-63
2022/03/17 05:07:36;;;;;;;49.90;28.20;;;;;;;-4.90;82.63;98602.10;110077;1245;68431;-66
2022/03/17 05:10:06;;;;;;;45.40;27.10;;;;;;;-4.87;82.63;98608.23;110054;1247;69474;-66
2022/03/17 05:12:35;;;;;;;41.00;22.10;;;;;;;-4.84;83.07;98609.80;109760;1247;59766;-62
2022/03/17 05:15:06;;;;;;;28.90;18.70;;;;;;;-4.78;82.75;98611.71;110095;1247;59666;-66
2022/03/17 05:17:38;;;;;;;41.90;23.10;;;;;;;-4.68;82.70;98613.48;110124;1247;71554;-65
2022/03/17 05:20:10;;;;;;;32.90;19.40;;;;;;;-4.54;82.36;98614.77;110020;1246;69021;-66
2022/03/17 05:22:40;;;;;;;28.10;16.20;;;;;;;-4.39;81.54;98615.02;110039;1247;68647;-64
2022/03/17 05:25:11;;;;;;;39.40;21.80;;;;;;;-4.19;80.68;98620.25;110062;1247;59705;-63
2022/03/17 05:27:42;;;;;;;45.00;26.70;;;;;;;-4.01;80.43;98620.16;110095;1247;59667;-66
2022/03/17 05:30:13;;;;;;;39.00;23.70;;;;;;;-3.93;79.11;98621.22;109976;1247;70909;-64
2022/03/17 05:32:47;;;;;;;34.90;22.10;;;;;;;-3.88;78.80;98622.09;110114;1246;68742;-61
2022/03/17 05:35:17;;;;;;;37.90;24.30;;;;;;;-3.83;78.64;98623.14;110037;1247;68862;-61
2022/03/17 05:37:46;;;;;;;49.20;30.10;;;;;;;-3.76;78.69;98628.10;109954;1248;59736;-66
2022/03/17 05:40:18;;;;;;;94.50;49.50;;;;;;;-3.68;79.15;98628.96;110124;1247;59658;-61
2022/03/17 05:42:50;;;;;;;92.40;50.10;;;;;;;-3.61;79.70;98633.09;110101;1247;71509;-62
2022/03/17 05:45:21;;;;;;;69.80;42.70;;;;;;;-3.55;79.74;98637.38;110026;1245;68407;-64
2022/03/17 05:47:53;;;;;;;66.60;36.80;;;;;;;-3.47;79.77;98641.14;110078;1247;68944;-65
2022/03/17 05:50:30;;;;;;;61.70;35.20;;;;;;;-3.38;79.35;98644.40;110047;1247;59757;-66
2022/03/17 05:52:59;;;;;;;62.80;40.30;;;;;;;-3.28;78.96;98646.64;110105;1246;59665;-66
2022/03/17 05:55:28;;;;;;;46.30;28.50;;;;;;;-3.19;78.67;98647.00;110098;1247;71629;-66
2022/03/17 05:57:58;;;;;;;58.90;34.40;;;;;;;-3.08;78.10;98654.17;110028;1247;68678;-65
2022/03/17 06:00:29;;;;;;;53.80;33.80;;;;;;;-3.00;77.06;98656.57;110069;1247;68677;-66
2022/03/17 06:02:59;;;;;;;59.70;36.10;;;;;;;-2.93;76.42;98660.67;110145;1246;59802;-63
2022/03/17 06:05:29;;;;;;;64.80;40.40;;;;;;;-2.86;76.43;98657.61;110109;1246;59787;-61
2022/03/17 06:08:00;;;;;;;66.80;37.60;;;;;;;-2.80;76.82;98664.77;110103;1245;71076;-62
2022/03/17 06:10:33;;;;;;;60.30;35.90;;;;;;;-2.68;77.32;98662.73;110160;1247;67900;-63
2022/03/17 06:13:04;;;;;;;57.80;34.80;;;;;;;-2.54;77.94;98674.84;110140;1247;69389;-61
2022/03/17 06:15:34;;;;;;;54.50;35.10;;;;;;;-2.40;77.74;98676.71;110187;1245;59812;-61
2022/03/17 06:18:05;;;;;;;63.00;36.50;;;;;;;-2.26;77.46;98671.25;110117;1245;59733;-62
2022/03/17 06:20:36;;;;;;;47.60;28.30;;;;;;;-2.12;77.60;98668.30;110053;1247;71702;-63
2022/03/17 06:23:07;;;;;;;56.20;33.40;;;;;;;-1.93;77.07;98671.17;110407;1244;67734;-62
2022/03/17 06:25:37;;;;;;;56.30;32.60;;;;;;;-1.77;76.43;98671.63;110099;1246;69468;-66
2022/03/17 06:28:09;;;;;;;59.40;37.30;;;;;;;-1.58;76.12;98674.96;110314;1244;59754;-66
2022/03/17 06:30:38;;;;;;;61.00;37.90;;;;;;;-1.34;75.97;98677.59;110163;1247;59683;-65
2022/03/17 06:33:08;;;;;;;90.40;53.90;;;;;;;-1.12;75.67;98681.59;110388;1244;70660;-65
2022/03/17 06:35:37;;;;;;;90.80;54.30;;;;;;;-1.00;75.13;98684.94;110428;1244;67605;-65
2022/03/17 06:38:07;;;;;;;69.60;43.50;;;;;;;-0.91;74.70;98686.25;110030;1247;68985;-66
2022/03/17 06:40:38;;;;;;;92.40;55.30;;;;;;;-0.80;74.24;98683.78;110347;1244;60075;-63
2022/03/17 06:43:07;;;;;;;78.40;46.40;;;;;;;-0.69;74.26;98686.59;110458;1244;59732;-65
2022/03/17 06:45:36;;;;;;;110.60;67.70;;;;;;;-0.60;73.89;98687.90;110286;1244;70678;-65
2022/03/17 06:48:06;;;;;;;112.10;72.00;;;;;;;-0.53;73.49;98689.72;110132;1244;68466;-66
2022/03/17 06:50:36;;;;;;;97.50;61.50;;;;;;;-0.40;73.73;98691.67;110273;1244;68458;-63
2022/03/17 06:53:05;;;;;;;93.20;60.80;;;;;;;-0.26;73.75;98696.52;110303;1244;59679;-64
2022/03/17 06:55:34;;;;;;;88.30;56.60;;;;;;;-0.06;73.56;98692.39;110077;1247;59682;-66
2022/03/17 06:58:04;;;;;;;81.20;52.50;;;;;;;0.12;72.47;98693.58;110399;1244;71704;-65
2022/03/17 07:00:33;;;;;;;71.10;46.00;;;;;;;0.37;71.60;98691.59;110167;1245;68685;-65
2022/03/17 07:03:02;;;;;;;75.20;49.30;;;;;;;0.60;71.47;98693.05;110223;1245;69583;-67
2022/03/17 07:05:32;;;;;;;100.20;65.70;;;;;;;0.75;70.61;98697.80;110195;1246;59782;-65
2022/03/17 07:08:01;;;;;;;90.30;57.20;;;;;;;0.82;70.58;98701.84;110167;1245;59747;-64
2022/03/17 07:10:34;;;;;;;88.20;55.20;;;;;;;0.89;69.84;98702.60;110140;1246;70741;-66
2022/03/17 07:13:04;;;;;;;80.90;49.20;;;;;;;1.07;70.06;98707.49;110335;1244;68455;-67
2022/03/17 07:15:34;;;;;;;92.40;56.60;;;;;;;1.29;68.11;98710.98;110368;1244;68708;-66
2022/03/17 07:18:03;;;;;;;84.10;49.70;;;;;;;1.49;68.26;98711.85;110166;1247;59655;-65
2022/03/17 07:20:33;;;;;;;73.00;46.90;;;;;;;1.72;68.27;98713.04;110337;1244;59731;-66
2022/03/17 07:23:02;;;;;;;55.50;37.10;;;;;;;1.92;66.16;98712.70;110124;1248;71634;-66
2022/03/17 07:25:32;;;;;;;62.90;38.40;;;;;;;2.19;66.79;98714.79;110318;1245;67830;-65
2022/03/17 07:28:01;;;;;;;45.80;31.00;;;;;;;2.45;65.69;98719.99;110098;1247;69010;-65
2022/03/17 07:30:31;;;;;;;51.00;32.40;;;;;;;2.62;62.79;98716.73;110245;1247;59662;-65
2022/03/17 07:33:00;;;;;;;58.60;36.70;;;;;;;2.80;62.54;98713.94;110245;1245;59649;-64
2022/03/17 07:35:30;;;;;;;53.30;34.20;;;;;;;3.04;62.00;98713.77;110080;1247;71468;-65
2022/03/17 07:38:02;;;;;;;48.10;30.10;;;;;;;3.42;62.46;98711.02;110069;1247;66746;-65
2022/03/17 07:40:33;;;;;;;42.50;28.00;;;;;;;3.79;57.50;98713.21;110389;1244;69103;-63
2022/03/17 07:43:04;;;;;;;36.10;24.90;;;;;;;4.16;56.96;98714.36;110389;1244;59684;-63
2022/03/17 07:46:01;;;;;;;26.20;18.30;;;;;;;4.38;54.45;98718.25;110131;1247;59682;-65
2022/03/17 07:49:00;;;;;;;24.10;16.20;;;;;;;4.61;54.47;98715.20;109956;1248;71791;-65
2022/03/17 07:51:37;;;;;;;24.90;17.50;;;;;;;4.98;52.84;98720.20;110055;1249;67937;-65
2022/03/17 07:54:07;;;;;;;22.50;15.90;;;;;;;5.21;51.95;98724.19;110175;1245;69740;-65
2022/03/17 07:56:36;;;;;;;;;;;;;;;5.31;50.59;98722.48;110471;1245;59693;-64
2022/03/17 07:59:05;;;;;;;23.50;15.60;;;;;;;5.49;50.42;98720.73;110130;1244;59680;-65
2022/03/17 08:01:35;;;;;;;23.50;16.10;;;;;;;5.60;48.04;98721.77;110230;1244;71510;-63
2022/03/17 08:04:04;;;;;;;18.90;13.80;;;;;;;5.77;49.95;98728.81;110041;1248;68633;-64
2022/03/17 08:06:35;;;;;;;23.30;15.10;;;;;;;5.95;48.53;98729.28;110163;1247;69479;-64
2022/03/17 08:09:04;;;;;;;21.10;14.30;;;;;;;6.11;47.32;98727.54;110112;1245;60561;-67
2022/03/17 08:11:34;;;;;;;24.60;15.20;;;;;;;6.09;46.85;98729.68;110123;1247;59706;-67
2022/03/17 08:14:04;;;;;;;24.70;15.40;;;;;;;5.92;46.69;98733.36;110169;1244;70818;-64
2022/03/17 08:16:34;;;;;;;21.20;15.00;;;;;;;5.83;45.64;98735.53;110373;1247;68515;-64
2022/03/17 08:19:07;;;;;;;23.50;14.40;;;;;;;6.00;45.92;98731.55;110141;1247;69411;-68
2022/03/17 08:21:41;;;;;;;21.10;15.30;;;;;;;6.25;46.39;98728.64;110293;1246;59690;-65
2022/03/17 08:24:10;;;;;;;22.80;16.10;;;;;;;6.32;45.67;98730.46;110100;1247;59685;-67
2022/03/17 08:26:39;;;;;;;23.20;15.50;;;;;;;6.42;46.78;98731.85;110058;1248;72295;-64
2022/03/17 08:29:08;;;;;;;24.40;15.50;;;;;;;6.41;45.81;98728.95;110150;1247;68606;-65
2022/03/17 08:31:37;;;;;;;23.00;16.80;;;;;;;6.59;45.34;98731.42;110076;1247;69535;-65
2022/03/17 08:34:06;;;;;;;24.10;16.30;;;;;;;6.79;44.68;98732.08;110147;1245;59695;-62
2022/03/17 08:36:36;;;;;;;19.20;13.80;;;;;;;6.76;44.09;98736.35;110112;1247;59721;-65
2022/03/17 08:39:05;;;;;;;21.10;12.70;;;;;;;7.00;43.70;98738.95;110165;1247;71515;-63
2022/03/17 08:41:39;;;;;;;19.20;13.80;;;;;;;7.31;44.24;98740.70;110270;1247;68209;-63
2022/03/17 08:44:09;;;;;;;26.50;18.00;;;;;;;7.31;42.71;98734.64;110133;1244;69852;-66
2022/03/17 08:49:26;;;;;;;33.80;22.10;;;;;;;7.78;42.58;98729.81;110109;1247;59648;-65
2022/03/17 08:51:57;;;;;;;21.60;16.10;;;;;;;7.84;41.38;98729.44;110166;1247;71543;-63
2022/03/17 08:54:28;;;;;;;21.60;15.10;;;;;;;8.24;41.57;98732.25;110360;1244;67832;-65
2022/03/17 08:57:01;;;;;;;25.90;17.30;;;;;;;8.65;40.71;98726.53;110204;1245;68721;-65
2022/03/17 08:59:32;;;;;;;24.80;17.60;;;;;;;8.45;39.47;98723.03;110023;1247;59726;-66
2022/03/17 09:02:04;;;;;;;18.30;13.30;;;;;;;8.48;40.66;98725.71;110324;1244;59743;-65
2022/03/17 09:04:34;;;;;;;20.30;15.40;;;;;;;8.64;39.79;98722.91;110283;1243;70778;-64
2022/03/17 09:07:05;;;;;;;24.40;14.60;;;;;;;8.61;37.73;98722.20;110485;1244;68579;-67
2022/03/17 09:09:36;;;;;;;19.20;13.60;;;;;;;8.57;37.88;98723.58;110387;1245;69522;-63
2022/03/17 09:12:08;;;;;;;17.20;11.40;;;;;;;8.84;38.38;98719.40;110313;1244;59691;-66
2022/03/17 09:14:40;;;;;;;21.40;14.10;;;;;;;9.03;36.47;98719.79;110454;1245;59703;-64
2022/03/17 09:17:10;;;;;;;18.90;14.10;;;;;;;9.00;36.25;98717.30;110176;1247;71533;-64
2022/03/17 09:19:39;;;;;;;20.40;13.20;;;;;;;9.16;36.41;98712.36;110407;1244;67838;-64
2022/03/17 09:22:09;;;;;;;20.40;14.40;;;;;;;9.84;36.23;98715.40;110053;1247;69484;-66
2022/03/17 09:24:38;;;;;;;16.20;11.30;;;;;;;10.57;36.27;98716.81;110070;1248;60139;-66
2022/03/17 09:27:09;;;;;;;14.50;10.00;;;;;;;10.79;32.84;98720.52;110371;1244;59679;-66
2022/03/17 09:29:40;;;;;;;15.60;10.70;;;;;;;11.03;32.01;98720.27;110430;1244;70847;-63
2022/03/17 09:32:09;;;;;;;16.10;10.70;;;;;;;10.97;32.03;98721.30;110449;1247;67958;-65
2022/03/17 09:34:38;;;;;;;15.80;11.20;;;;;;;10.89;31.87;98720.54;110193;1247;69519;-65
2022/03/17 09:37:08;;;;;;;14.40;10.40;;;;;;;10.70;31.00;98721.19;110306;1247;59757;-64
2022/03/17 09:39:44;;;;;;;17.20;11.20;;;;;;;10.52;30.99;98721.23;110372;1244;59627;-64
2022/03/17 09:42:16;;;;;;;14.70;10.20;;;;;;;10.34;31.99;98725.28;110117;1247;70746;-63
2022/03/17 09:44:50;;;;;;;16.00;10.90;;;;;;;10.53;32.11;98726.80;110227;1247;68651;-64
2022/03/17 09:47:23;;;;;;;14.00;11.00;;;;;;;10.52;31.43;98726.62;110347;1245;68785;-64
2022/03/17 09:49:53;;;;;;;14.30;10.50;;;;;;;10.77;31.58;98727.24;110072;1247;59760;-64
2022/03/17 09:52:23;;;;;;;18.30;12.10;;;;;;;10.87;31.56;98731.44;110415;1244;59660;-62
2022/03/17 09:54:52;;;;;;;;;;;;;;;10.97;31.17;98734.03;110552;1245;70779;-64
2022/03/17 09:57:22;;;;;;;14.60;10.40;;;;;;;10.90;31.74;98736.86;110386;1244;67794;-66
2022/03/17 10:00:01;;;;;;;18.60;10.90;;;;;;;10.60;30.59;98737.20;110466;1244;68451;-67
2022/03/17 10:02:34;;;;;;;14.80;11.00;;;;;;;10.45;31.55;98738.84;110343;1244;59750;-66
2022/03/17 10:05:06;;;;;;;14.30;9.00;;;;;;;10.46;31.61;98740.36;110130;1247;59741;-64
2022/03/17 10:07:35;;;;;;;15.00;11.80;;;;;;;10.51;31.07;98742.38;110113;1245;70792;-64
2022/03/17 10:10:07;;;;;;;19.00;13.10;;;;;;;10.72;31.56;98741.63;110099;1247;68585;-63
2022/03/17 10:12:37;;;;;;;16.80;11.70;;;;;;;10.09;31.03;98745.39;110311;1247;68589;-64
2022/03/17 10:15:17;;;;;;;15.90;11.10;;;;;;;10.06;31.48;98746.89;109898;1249;59743;-63
2022/03/17 10:17:47;;;;;;;14.40;11.20;;;;;;;9.86;32.22;98751.72;110331;1244;60094;-64
2022/03/17 10:20:22;;;;;;;16.20;12.00;;;;;;;9.81;32.50;98750.35;110150;1245;70772;-64
2022/03/17 10:22:53;;;;;;;14.20;11.30;;;;;;;9.57;32.77;98749.93;110134;1247;68632;-63
2022/03/17 10:25:29;;;;;;;14.20;10.30;;;;;;;9.40;32.99;98748.70;110396;1244;70034;-62
2022/03/17 10:27:59;;;;;;;15.00;10.80;;;;;;;9.35;32.32;98748.55;110245;1247;60161;-64
2022/03/17 10:30:35;;;;;;;16.50;11.90;;;;;;;9.42;32.41;98747.00;110277;1245;59721;-63
2022/03/17 10:33:09;;;;;;;15.80;10.70;;;;;;;9.23;33.29;98748.24;110138;1247;70631;-66
2022/03/17 10:35:42;;;;;;;16.20;11.90;;;;;;;9.31;33.01;98751.17;110183;1247;68132;-64
2022/03/17 10:38:14;;;;;;;14.90;10.70;;;;;;;9.24;33.50;98747.85;110148;1246;68747;-63
2022/03/17 10:41:02;;;;;;;16.50;11.80;;;;;;;9.20;33.97;98750.84;110095;1247;59703;-66
2022/03/17 10:43:33;;;;;;;17.50;14.20;;;;;;;9.21;32.89;98750.09;110396;1247;59690;-65
2022/03/17 10:46:06;;;;;;;18.10;12.60;;;;;;;9.16;32.82;98748.94;110414;1247;70891;-68
2022/03/17 10:48:55;;;;;;;17.40;11.20;;;;;;;8.82;32.74;98739.48;110138;1247;68606;-65
2022/03/17 10:51:35;;;;;;;12.80;10.00;;;;;;;8.61;32.93;98741.11;110299;1247;69405;-64
2022/03/17 10:54:08;;;;;;;13.90;10.30;;;;;;;8.80;34.06;98736.65;110159;1247;59758;-65
2022/03/17 10:56:39;;;;;;;12.90;8.80;;;;;;;9.08;33.74;98735.89;110420;1247;59654;-65
2022/03/17 10:59:09;;;;;;;14.30;10.80;;;;;;;9.20;33.36;98738.16;110325;1247;71629;-66
2022/03/17 11:01:48;;;;;;;17.70;11.90;;;;;;;9.12;33.30;98735.34;109885;1248;68948;-64
2022/03/17 11:04:20;;;;;;;13.70;9.80;;;;;;;9.17;33.17;98738.59;110135;1244;68291;-63
2022/03/17 11:06:54;;;;;;;19.60;13.50;;;;;;;9.06;32.98;98731.27;110104;1247;59763;-65
2022/03/17 11:09:23;;;;;;;18.40;12.70;;;;;;;9.19;33.03;98735.52;110124;1248;59760;-64
2022/03/17 11:11:53;;;;;;;14.00;10.20;;;;;;;9.07;32.74;98731.94;110116;1248;71350;-66
2022/03/17 11:14:23;;;;;;;16.00;10.80;;;;;;;9.23;33.40;98737.63;110137;1247;68634;-64
2022/03/17 11:16:56;;;;;;;15.50;10.70;;;;;;;9.12;32.37;98734.66;110379;1247;69516;-63
2022/03/17 11:19:27;;;;;;;17.10;11.40;;;;;;;9.01;32.15;98727.15;110363;1247;59663;-66
2022/03/17 11:22:08;;;;;;;19.20;12.50;;;;;;;8.77;31.90;98720.08;110328;1247;59709;-64
2022/03/17 11:24:38;;;;;;;17.90;12.40;;;;;;;8.19;32.70;98719.95;110060;1247;70875;-65
2022/03/17 11:27:12;;;;;;;15.40;10.50;;;;;;;8.02;33.34;98721.88;110127;1247;68589;-65
2022/03/17 11:29:48;;;;;;;13.80;8.70;;;;;;;8.09;33.81;98719.00;110387;1247;68625;-67
2022/03/17 11:32:29;;;;;;;17.10;11.60;;;;;;;8.16;33.95;98715.57;110284;1245;59678;-66
2022/03/17 11:35:11;;;;;;;16.40;9.50;;;;;;;8.16;34.69;98715.41;110431;1247;59745;-67
2022/03/17 11:37:39;;;;;;;15.40;11.10;;;;;;;8.06;33.85;98718.41;110411;1247;71998;-64
2022/03/17 11:40:14;;;;;;;12.50;10.30;;;;;;;8.10;33.41;98717.55;110423;1246;67907;-64
2022/03/17 11:42:56;;;;;;;14.50;10.40;;;;;;;8.06;33.31;98716.52;110055;1247;69452;-65
2022/03/17 11:45:30;;;;;;;17.00;11.20;;;;;;;7.99;33.12;98717.67;110183;1247;59735;-64
2022/03/17 11:48:02;;;;;;;15.00;10.70;;;;;;;7.86;33.26;98719.09;110443;1247;59668;-67